Terminal Aerodrome Forecast
Issued by NWS

Home | Current Version | Previous Version | Text Only | Print | Product List | Glossary On
Versions: 1 2 3 4 5 6 7 8 9 10 11 12 13 14 15
000
FTUS46 KSGX 200900 AAA
TAFONT
TAF AMD
KONT 200934Z 2010/2112 VRB04KT P6SM SKC
     FM201200 VRB04KT 6SM BR SCT010
      TEMPO 2012/2015 4SM BR BKN009
     FM201700 23005KT P6SM SKC
     FM202100 26010KT P6SM SKC
     FM210400 VRB04KT P6SM SCT020
     FM210700 VRB04KT P6SM BKN020=

USA.gov is the U.S. government's official web portal to all federal, state and local government web resources and services.